createdAt,value
2018-11-22T12:17:13.325Z,21.00
2018-11-22T12:19:42.114Z,19.43
2018-11-22T12:22:10.842Z,20.13
2018-11-22T12:24:39.569Z,21.03
2018-11-22T12:27:08.328Z,18.83
2018-11-22T12:29:37.683Z,22.50
2018-11-22T12:32:11.824Z,22.40
2018-11-22T12:34:45.772Z,19.00
2018-11-22T12:37:19.639Z,22.33
2018-11-22T12:39:48.440Z,20.00
2018-11-22T12:42:17.239Z,24.50
2018-11-22T12:44:46.892Z,21.80
2018-11-22T12:47:15.732Z,22.13
2018-11-22T12:49:45.604Z,22.97
2018-11-22T12:52:14.320Z,19.40
2018-11-22T12:54:42.987Z,22.43
2018-11-22T12:57:11.640Z,22.23
2018-11-22T12:59:40.390Z,21.70
2018-11-22T13:02:09.081Z,22.63
2018-11-22T13:04:37.754Z,23.93
2018-11-22T13:07:06.454Z,21.47
2018-11-22T13:09:35.088Z,24.37
2018-11-22T13:12:03.855Z,23.63
2018-11-22T13:14:32.571Z,24.17
2018-11-22T13:17:01.255Z,23.70
2018-11-22T13:19:29.893Z,20.73
2018-11-22T13:21:58.774Z,25.10
2018-11-22T13:24:27.682Z,23.87
2018-11-22T13:26:57.524Z,26.50
2018-11-22T13:29:26.230Z,24.90
2018-11-22T13:31:55.013Z,24.33
2018-11-22T13:34:23.961Z,24.80
2018-11-22T13:36:52.628Z,25.80
2018-11-22T13:39:21.292Z,27.27
2018-11-22T13:41:50.206Z,28.10
2018-11-22T13:44:19.212Z,27.17
2018-11-22T13:46:48.141Z,28.23
2018-11-22T13:49:17.168Z,28.33
2018-11-22T13:51:46.167Z,29.53
2018-11-22T13:54:15.499Z,29.87
2018-11-22T13:56:44.678Z,26.53
2018-11-22T13:59:13.562Z,32.47
2018-11-22T14:01:42.503Z,34.07
2018-11-22T14:04:11.339Z,31.63
2018-11-22T14:06:40.182Z,32.50
2018-11-22T14:09:10.290Z,28.83
2018-11-22T14:11:39.198Z,33.07
2018-11-22T14:14:08.582Z,34.13
2018-11-22T14:16:37.371Z,31.73
2018-11-22T14:19:06.316Z,31.70
2018-11-22T14:21:35.240Z,32.07
2018-11-22T14:24:04.168Z,33.53
2018-11-22T14:26:32.921Z,34.67
2018-11-22T14:29:01.852Z,32.90
2018-11-22T14:31:30.705Z,32.97
2018-11-22T14:33:59.326Z,34.27
2018-11-22T14:36:28.380Z,31.47
2018-11-22T14:38:57.006Z,36.73
2018-11-22T14:41:25.618Z,32.63
2018-11-22T14:43:54.462Z,38.87
2018-11-22T14:46:24.437Z,33.37
2018-11-22T14:48:53.991Z,33.97
2018-11-22T14:51:27.771Z,37.67
2018-11-22T14:53:56.659Z,35.47
2018-11-22T14:56:26.099Z,38.17
2018-11-22T14:58:55.161Z,44.73
2018-11-22T15:01:24.254Z,47.57
2018-11-22T15:03:53.254Z,46.63
2018-11-22T15:06:22.650Z,46.33
2018-11-22T15:08:51.788Z,47.57
2018-11-22T15:11:20.730Z,41.97
2018-11-22T15:13:49.623Z,42.47
2018-11-22T15:16:18.516Z,41.07
2018-11-22T15:18:47.551Z,40.87
2018-11-22T15:21:16.458Z,38.53
2018-11-22T15:23:45.423Z,37.40
2018-11-22T15:26:14.334Z,39.50
2018-11-22T15:28:43.239Z,40.83
2018-11-22T15:31:11.879Z,41.93
2018-11-22T15:33:40.546Z,44.17
2018-11-22T15:36:10.066Z,40.43
2018-11-22T15:38:38.738Z,43.13
2018-11-22T15:41:07.533Z,43.57
2018-11-22T15:43:37.162Z,39.33
2018-11-22T15:46:05.881Z,39.33
2018-11-22T15:48:34.498Z,43.17
2018-11-22T15:51:03.114Z,44.97
2018-11-22T15:53:31.718Z,43.30
2018-11-22T15:56:00.319Z,38.70
2018-11-22T15:58:28.913Z,46.77
2018-11-22T16:00:57.520Z,42.20
2018-11-22T16:03:26.125Z,40.03
2018-11-22T16:05:54.735Z,43.60
2018-11-22T16:08:23.346Z,40.37
2018-11-22T16:10:51.970Z,42.53
2018-11-22T16:13:20.629Z,41.40
2018-11-22T16:15:50.956Z,42.67
2018-11-22T16:18:19.554Z,38.90
2018-11-22T16:20:48.201Z,42.10
2018-11-22T16:23:16.909Z,41.90
2018-11-22T16:25:45.558Z,35.27
2018-11-22T16:28:14.268Z,38.43
2018-11-22T16:30:44.049Z,63.40
2018-11-22T16:33:12.934Z,45.53
2018-11-22T16:35:42.331Z,40.73
2018-11-22T16:38:10.831Z,46.73
2018-11-22T16:40:39.827Z,42.07
2018-11-22T16:43:08.671Z,44.50
2018-11-22T16:45:38.574Z,43.57
2018-11-22T16:48:09.310Z,45.17
2018-11-22T16:50:39.192Z,80.23
2018-11-22T16:53:09.252Z,46.60
2018-11-22T16:55:38.282Z,40.50
2018-11-22T16:58:08.366Z,46.87
2018-11-22T17:00:38.647Z,50.70
2018-11-22T17:03:10.447Z,47.40
2018-11-22T17:05:39.695Z,43.37
2018-11-22T17:08:09.733Z,46.17
2018-11-22T17:10:40.183Z,47.97
2018-11-22T17:13:09.204Z,45.47
2018-11-22T17:15:39.222Z,46.23
2018-11-22T17:18:09.225Z,49.93
2018-11-22T17:20:38.248Z,43.00
2018-11-22T17:23:07.687Z,48.80
2018-11-22T17:25:38.165Z,49.90
2018-11-22T17:28:08.280Z,48.33
2018-11-22T17:30:38.589Z,51.77
2018-11-22T17:33:07.291Z,47.53
2018-11-22T17:35:36.010Z,68.20
2018-11-22T17:38:06.038Z,47.53
2018-11-22T17:40:37.250Z,45.40
2018-11-22T17:43:06.362Z,46.63
2018-11-22T17:45:39.223Z,45.73
2018-11-22T17:48:08.304Z,44.60
2018-11-22T17:50:38.855Z,47.03
2018-11-22T17:53:08.322Z,41.80
2018-11-22T17:55:37.159Z,44.70
2018-11-22T17:58:06.181Z,53.17
2018-11-22T18:00:36.591Z,47.63
2018-11-22T18:03:06.042Z,43.43
2018-11-22T18:05:35.099Z,45.57
2018-11-22T18:08:04.035Z,43.17
2018-11-22T18:10:34.467Z,50.37
2018-11-22T18:13:03.489Z,45.53
2018-11-22T18:15:35.638Z,45.00
2018-11-22T18:18:04.402Z,46.70
2018-11-22T18:20:37.493Z,49.50
2018-11-22T18:23:11.259Z,44.03
2018-11-22T18:25:35.592Z,50.90
2018-11-22T18:28:04.528Z,44.47
2018-11-22T18:30:34.124Z,48.43
2018-11-22T18:33:07.358Z,47.50
2018-11-22T18:35:36.315Z,47.80
2018-11-22T18:38:05.427Z,45.33
2018-11-22T18:40:36.118Z,51.50
2018-11-22T18:43:05.317Z,46.47
2018-11-22T18:45:35.445Z,52.80
2018-11-22T18:48:05.053Z,48.33
2018-11-22T18:50:34.768Z,47.87
2018-11-22T18:53:03.558Z,48.10
2018-11-22T18:55:32.574Z,50.17
2018-11-22T18:58:01.978Z,47.57
2018-11-22T19:00:32.730Z,45.60
2018-11-22T19:03:03.118Z,51.47
2018-11-22T19:05:33.266Z,50.13
2018-11-22T19:08:02.404Z,45.93
2018-11-22T19:10:33.065Z,51.93
2018-11-22T19:13:03.159Z,49.20
2018-11-22T19:15:33.624Z,49.73
2018-11-22T19:18:02.669Z,49.33
2018-11-22T19:20:33.453Z,51.73
2018-11-22T19:23:03.213Z,50.03
2018-11-22T19:25:32.201Z,51.97
2018-11-22T19:28:01.846Z,50.63
2018-11-22T19:30:37.386Z,48.70
2018-11-22T19:33:03.688Z,46.90
2018-11-22T19:35:34.121Z,46.93
2018-11-22T19:38:03.044Z,47.40
2018-11-22T19:40:33.384Z,45.90
2018-11-22T19:43:03.941Z,48.03
2018-11-22T19:45:34.422Z,50.43
2018-11-22T19:48:03.105Z,49.90
2018-11-22T19:50:32.230Z,50.47
2018-11-22T19:53:02.312Z,44.50
2018-11-22T19:55:32.339Z,46.73
2018-11-22T19:58:02.548Z,45.10
2018-11-22T20:00:31.530Z,51.37
2018-11-22T20:03:01.599Z,54.23
2018-11-22T20:05:31.549Z,49.77
2018-11-22T20:08:01.670Z,44.10
2018-11-22T20:10:31.768Z,53.50
2018-11-22T20:13:00.721Z,50.63
2018-11-22T20:15:29.894Z,49.37
2018-11-22T20:17:59.488Z,52.87
2018-11-22T20:20:28.466Z,49.03
2018-11-22T20:22:57.865Z,50.77
2018-11-22T20:25:26.928Z,49.20
2018-11-22T20:27:56.501Z,49.57
2018-11-22T20:30:29.705Z,47.27
2018-11-22T20:32:59.050Z,52.73
2018-11-22T20:35:28.115Z,53.03
2018-11-22T20:37:56.949Z,53.90
2018-11-22T20:40:26.775Z,51.03
2018-11-22T20:42:55.609Z,51.07
2018-11-22T20:45:25.358Z,53.43
2018-11-22T20:47:56.126Z,54.93
2018-11-22T20:50:26.237Z,55.23
2018-11-22T20:52:55.178Z,53.43
2018-11-22T20:55:25.343Z,51.43
2018-11-22T20:57:57.381Z,54.10
2018-11-22T21:00:27.757Z,51.90
2018-11-22T21:02:56.681Z,54.17
2018-11-22T21:05:32.102Z,54.27
2018-11-22T21:08:00.978Z,53.70
2018-11-22T21:10:31.197Z,47.57
2018-11-22T21:13:00.139Z,51.43
2018-11-22T21:15:30.390Z,52.13
2018-11-22T21:18:00.802Z,51.97
2018-11-22T21:20:31.345Z,54.07
2018-11-22T21:25:36.962Z,52.95
2018-11-22T21:28:06.110Z,53.07
2018-11-22T21:30:37.507Z,56.23
2018-11-22T21:33:06.562Z,51.60
2018-11-22T21:35:35.847Z,55.17
2018-11-22T21:38:06.075Z,55.20
2018-11-22T21:40:35.426Z,50.60
2018-11-22T21:43:04.572Z,58.07
2018-11-22T21:45:34.338Z,59.17
2018-11-22T21:48:03.285Z,61.93
2018-11-22T21:50:32.195Z,62.57
2018-11-22T21:53:01.318Z,58.93
2018-11-22T21:55:30.719Z,52.80
2018-11-22T21:58:00.784Z,57.63
2018-11-22T22:00:32.491Z,57.07
2018-11-22T22:03:02.838Z,53.00
2018-11-22T22:05:31.706Z,57.73
2018-11-22T22:08:00.622Z,55.43
2018-11-22T22:10:29.567Z,52.90
2018-11-22T22:12:58.502Z,55.23
2018-11-22T22:15:28.513Z,55.00
2018-11-22T22:17:57.198Z,57.50
2018-11-22T22:20:27.330Z,51.77
2018-11-22T22:22:56.109Z,51.50
2018-11-22T22:25:25.691Z,54.13
2018-11-22T22:27:54.784Z,55.60
2018-11-22T22:30:29.849Z,54.87
2018-11-22T22:32:59.987Z,51.57
2018-11-22T22:35:28.590Z,59.57
2018-11-22T22:37:57.309Z,54.57
2018-11-22T22:40:27.280Z,51.43
2018-11-22T22:42:56.766Z,52.47
2018-11-22T22:45:26.453Z,52.33
2018-11-22T22:47:55.226Z,50.30
2018-11-22T22:50:25.066Z,51.07
2018-11-22T22:52:57.692Z,50.07
2018-11-22T22:55:26.574Z,49.87
2018-11-22T22:57:55.182Z,50.27
2018-11-22T23:00:29.830Z,50.43
2018-11-22T23:02:59.747Z,48.57
2018-11-22T23:05:28.980Z,50.07
2018-11-22T23:07:57.577Z,53.03
2018-11-22T23:10:26.366Z,47.70
2018-11-22T23:12:55.667Z,48.57
2018-11-22T23:15:24.813Z,49.70
2018-11-22T23:17:53.447Z,50.07
2018-11-22T23:20:24.492Z,47.77
2018-11-22T23:22:53.284Z,47.80
2018-11-22T23:25:22.905Z,47.73
2018-11-22T23:27:51.491Z,45.47
2018-11-22T23:30:22.321Z,47.93
2018-11-22T23:32:52.150Z,52.40
2018-11-22T23:35:20.978Z,50.90
2018-11-22T23:37:49.850Z,53.07
2018-11-22T23:40:22.158Z,50.73
2018-11-22T23:42:50.809Z,49.37
2018-11-22T23:45:20.635Z,51.00
2018-11-22T23:47:49.580Z,47.93
2018-11-22T23:50:19.569Z,48.03
2018-11-22T23:52:49.353Z,48.77
2018-11-22T23:55:17.943Z,49.50
2018-11-22T23:57:46.674Z,51.17
